createdAt,value
2022-11-17T00:01:57.937Z,0.93
2022-11-17T00:04:30.964Z,2.05
2022-11-17T00:06:58.090Z,1.27
2022-11-17T00:09:25.417Z,1.00
2022-11-17T00:12:11.127Z,1.02
2022-11-17T00:14:40.559Z,1.67
2022-11-17T00:17:11.439Z,1.30
2022-11-17T00:19:57.037Z,1.30
2022-11-17T00:22:24.587Z,1.00
2022-11-17T00:24:51.579Z,1.25
2022-11-17T00:27:18.437Z,1.52
2022-11-17T00:29:45.241Z,1.15
2022-11-17T00:32:33.790Z,2.40
2022-11-17T00:35:00.964Z,1.55
2022-11-17T00:37:30.200Z,1.83
2022-11-17T00:40:00.728Z,1.27
2022-11-17T00:42:28.108Z,2.28
2022-11-17T00:44:54.849Z,2.35
2022-11-17T00:47:23.315Z,2.40
2022-11-17T00:49:50.269Z,2.28
2022-11-17T00:52:17.080Z,1.75
2022-11-17T00:54:43.862Z,1.75
2022-11-17T00:57:10.731Z,3.22
2022-11-17T00:59:37.651Z,2.47
2022-11-17T01:02:04.478Z,2.35
2022-11-17T01:04:32.698Z,2.85
2022-11-17T01:06:59.592Z,2.38
2022-11-17T01:09:26.415Z,2.47
2022-11-17T01:11:53.951Z,2.25
2022-11-17T01:14:23.179Z,2.70
2022-11-17T01:16:50.624Z,3.08
2022-11-17T01:19:18.238Z,2.58
2022-11-17T01:21:47.174Z,2.85
2022-11-17T01:24:16.353Z,3.42
2022-11-17T01:26:45.093Z,3.10
2022-11-17T01:29:13.228Z,3.05
2022-11-17T01:31:43.481Z,4.00
2022-11-17T01:34:11.202Z,3.88
2022-11-17T01:36:59.919Z,3.13
2022-11-17T01:39:29.857Z,3.78
2022-11-17T01:41:57.245Z,3.60
2022-11-17T01:44:56.878Z,4.38
2022-11-17T01:47:30.504Z,3.45
2022-11-17T01:50:01.396Z,3.55
2022-11-17T01:52:30.530Z,4.15
2022-11-17T01:55:00.091Z,3.67
2022-11-17T01:57:33.109Z,3.95
2022-11-17T02:00:02.800Z,4.22
2022-11-17T02:02:29.826Z,3.92
2022-11-17T02:05:06.967Z,4.03
2022-11-17T02:07:37.880Z,4.45
2022-11-17T02:10:07.597Z,3.47
2022-11-17T02:12:36.891Z,3.85
2022-11-17T02:15:05.548Z,3.92
2022-11-17T02:17:36.505Z,3.75
2022-11-17T02:20:10.668Z,3.80
2022-11-17T02:23:12.208Z,3.42
2022-11-17T02:26:06.040Z,3.67
2022-11-17T02:28:37.662Z,3.35
2022-11-17T02:31:19.814Z,3.60
2022-11-17T02:33:55.881Z,5.50
2022-11-17T02:36:31.400Z,3.92
2022-11-17T02:39:04.839Z,3.83
2022-11-17T02:41:37.941Z,5.03
2022-11-17T02:44:10.791Z,3.72
2022-11-17T02:46:44.220Z,4.30
2022-11-17T02:49:17.540Z,4.15
2022-11-17T02:51:46.060Z,3.45
2022-11-17T02:54:13.427Z,3.65
2022-11-17T02:56:41.887Z,3.80
2022-11-17T02:59:13.859Z,4.53
2022-11-17T03:02:03.432Z,4.68
2022-11-17T03:04:37.815Z,4.65
2022-11-17T03:07:19.183Z,5.13
2022-11-17T03:09:53.108Z,4.60
2022-11-17T03:15:01.844Z,3.60
2022-11-17T03:17:35.078Z,4.00
2022-11-17T03:20:08.508Z,4.88
2022-11-17T03:22:43.488Z,4.18
2022-11-17T03:25:15.252Z,3.85
2022-11-17T03:27:47.341Z,4.35
2022-11-17T03:30:17.506Z,4.53
2022-11-17T03:32:50.387Z,3.45
2022-11-17T03:35:20.621Z,3.60
2022-11-17T03:37:52.049Z,2.90
2022-11-17T03:40:22.712Z,3.58
2022-11-17T03:42:54.016Z,2.78
2022-11-17T03:45:25.390Z,2.38
2022-11-17T03:47:57.815Z,1.80
2022-11-17T03:50:31.284Z,2.30
2022-11-17T03:52:58.096Z,1.88
2022-11-17T03:55:30.933Z,1.60
2022-11-17T03:58:04.542Z,1.90
2022-11-17T04:00:34.414Z,1.60
2022-11-17T04:03:01.349Z,1.10
2022-11-17T04:05:28.259Z,1.60
2022-11-17T04:07:55.113Z,0.95
2022-11-17T04:10:25.686Z,0.90
2022-11-17T04:13:12.411Z,1.20
2022-11-17T04:15:59.645Z,1.25
2022-11-17T04:18:27.170Z,1.45
2022-11-17T04:20:55.748Z,0.70
2022-11-17T04:23:23.998Z,1.40
2022-11-17T04:26:11.237Z,1.23
2022-11-17T04:28:40.944Z,1.20
2022-11-17T04:31:14.737Z,0.95
2022-11-17T04:33:43.085Z,0.90
2022-11-17T04:36:11.467Z,1.23
2022-11-17T04:38:41.834Z,1.05
2022-11-17T04:41:28.710Z,1.23
2022-11-17T04:43:56.294Z,1.58
2022-11-17T04:46:25.594Z,1.00
2022-11-17T04:48:53.875Z,1.13
2022-11-17T04:51:21.441Z,0.80
2022-11-17T04:53:48.656Z,1.20
2022-11-17T04:56:16.190Z,0.95
2022-11-17T04:58:43.245Z,0.80
2022-11-17T05:01:13.183Z,0.88
2022-11-17T05:03:43.268Z,1.42
2022-11-17T05:06:11.031Z,1.35
2022-11-17T05:08:39.382Z,0.82
2022-11-17T05:11:26.476Z,0.98
2022-11-17T05:13:53.616Z,0.60
2022-11-17T05:16:40.102Z,0.90
2022-11-17T05:19:10.754Z,1.30
2022-11-17T05:21:37.664Z,1.00
2022-11-17T05:24:05.097Z,1.05
2022-11-17T05:26:33.545Z,1.27
2022-11-17T05:29:03.151Z,1.00
2022-11-17T05:31:30.416Z,1.40
2022-11-17T05:33:57.949Z,1.10
2022-11-17T05:36:27.449Z,1.98
2022-11-17T05:38:55.154Z,1.67
2022-11-17T05:41:22.839Z,2.20
2022-11-17T05:43:50.495Z,1.92
2022-11-17T05:46:18.290Z,2.65
2022-11-17T05:48:45.774Z,1.63
2022-11-17T05:51:12.920Z,1.52
2022-11-17T05:53:41.125Z,2.05
2022-11-17T05:56:16.948Z,1.52
2022-11-17T05:58:47.948Z,1.45
2022-11-17T06:01:16.319Z,2.00
2022-11-17T06:03:49.147Z,1.83
2022-11-17T06:06:16.172Z,2.08
2022-11-17T06:08:44.337Z,2.40
2022-11-17T06:11:11.117Z,1.75
2022-11-17T06:13:38.478Z,1.90
2022-11-17T06:16:10.055Z,2.50
2022-11-17T06:18:39.780Z,2.00
2022-11-17T06:21:09.694Z,2.65
2022-11-17T06:23:38.201Z,2.47
2022-11-17T06:31:46.989Z,2.47
2022-11-17T06:37:12.313Z,2.60
2022-11-17T06:39:39.223Z,2.45
2022-11-17T06:45:32.743Z,2.90
2022-11-17T06:57:27.971Z,3.20
2022-11-17T06:59:56.205Z,3.72
2022-11-17T07:05:21.120Z,3.13
2022-11-17T07:07:48.326Z,2.10
2022-11-17T07:10:15.289Z,1.92
2022-11-17T07:12:42.188Z,2.38
2022-11-17T07:15:10.918Z,2.75
2022-11-17T07:17:37.733Z,2.20
2022-11-17T07:20:06.451Z,2.58
2022-11-17T07:28:18.869Z,2.60
2022-11-17T07:31:13.299Z,2.70
2022-11-17T07:36:09.861Z,2.45
2022-11-17T07:38:43.354Z,2.00
2022-11-17T07:44:12.825Z,1.50
2022-11-17T07:46:41.090Z,4.45
2022-11-17T07:49:07.947Z,4.05
2022-11-17T07:51:34.818Z,4.22
2022-11-17T07:54:01.888Z,3.75
2022-11-17T07:56:28.684Z,5.53
2022-11-17T07:58:55.556Z,3.70
2022-11-17T08:01:22.326Z,6.10
2022-11-17T08:03:50.679Z,3.80
2022-11-17T08:06:17.598Z,3.00
2022-11-17T08:08:44.525Z,2.60
2022-11-17T08:11:13.044Z,2.63
2022-11-17T08:13:41.031Z,2.72
2022-11-17T08:16:09.365Z,2.90
2022-11-17T08:18:37.274Z,2.13
2022-11-17T08:21:07.938Z,2.92
2022-11-17T08:23:35.295Z,2.95
2022-11-17T08:26:03.545Z,2.10
2022-11-17T08:28:30.510Z,2.40
2022-11-17T08:30:57.377Z,2.22
2022-11-17T08:33:24.273Z,2.00
2022-11-17T08:35:51.455Z,1.70
2022-11-17T08:38:19.788Z,2.45
2022-11-17T08:40:47.785Z,2.15
2022-11-17T08:43:14.564Z,2.08
2022-11-17T08:45:42.578Z,1.92
2022-11-17T08:48:09.354Z,1.98
2022-11-17T08:50:36.308Z,2.30
2022-11-17T08:53:03.200Z,1.95
2022-11-17T08:55:32.388Z,2.45
2022-11-17T08:58:01.478Z,1.92
2022-11-17T09:00:28.257Z,3.03
2022-11-17T09:02:55.074Z,2.53
2022-11-17T09:05:21.976Z,1.95
2022-11-17T09:07:49.215Z,2.53
2022-11-17T09:10:16.182Z,2.13
2022-11-17T09:12:44.421Z,2.05
2022-11-17T09:15:11.485Z,2.03
2022-11-17T09:17:38.261Z,3.28
2022-11-17T09:20:06.023Z,2.33
2022-11-17T09:22:32.815Z,2.55
2022-11-17T09:24:59.590Z,2.03
2022-11-17T09:27:26.376Z,2.30
2022-11-17T09:29:54.631Z,2.17
2022-11-17T09:32:21.471Z,1.80
2022-11-17T09:34:48.381Z,2.53
2022-11-17T09:37:15.211Z,2.03
2022-11-17T09:39:42.074Z,1.77
2022-11-17T09:42:13.743Z,1.83
2022-11-17T09:44:45.880Z,1.67
2022-11-17T09:47:32.742Z,1.50
2022-11-17T09:50:04.336Z,2.92
2022-11-17T09:52:37.069Z,2.63
2022-11-17T09:55:16.815Z,1.80
2022-11-17T09:57:48.387Z,1.73
2022-11-17T10:00:18.650Z,1.88
2022-11-17T10:02:47.839Z,1.65
2022-11-17T10:05:16.408Z,1.98
2022-11-17T10:07:48.444Z,1.80
2022-11-17T10:10:20.201Z,2.13
2022-11-17T10:12:51.646Z,1.75
2022-11-17T10:15:28.135Z,1.55
2022-11-17T10:17:56.785Z,1.85
2022-11-17T10:20:23.929Z,1.30
2022-11-17T10:22:53.791Z,1.52
2022-11-17T10:25:36.752Z,3.25
2022-11-17T10:28:04.673Z,2.42
2022-11-17T10:30:31.758Z,3.47
2022-11-17T10:33:01.885Z,3.20
2022-11-17T10:35:30.722Z,2.47
2022-11-17T10:37:59.944Z,3.17
2022-11-17T10:40:28.414Z,5.43
2022-11-17T10:43:03.156Z,3.63
2022-11-17T10:45:32.625Z,1.60
2022-11-17T10:48:20.393Z,3.03
2022-11-17T10:50:53.003Z,4.43
2022-11-17T10:55:56.230Z,4.10
2022-11-17T10:58:26.029Z,6.35
2022-11-17T11:00:55.927Z,4.20
2022-11-17T11:03:26.553Z,1.65
2022-11-17T11:06:06.156Z,6.55
2022-11-17T11:08:40.278Z,7.45
2022-11-17T11:11:16.015Z,4.35
2022-11-17T11:13:49.768Z,1.80
2022-11-17T11:16:16.630Z,3.63
2022-11-17T11:18:46.621Z,1.98
2022-11-17T11:21:24.330Z,2.00
2022-11-17T11:23:57.647Z,1.95
2022-11-17T11:26:44.530Z,1.75
2022-11-17T11:29:22.576Z,2.03
2022-11-17T11:32:04.390Z,1.90
2022-11-17T11:34:57.139Z,1.75
2022-11-17T11:37:29.968Z,1.48
2022-11-17T11:48:41.927Z,2.30
2022-11-17T12:12:38.893Z,1.63
2022-11-17T12:18:12.814Z,1.08
2022-11-17T12:21:05.996Z,0.95
2022-11-17T12:23:54.475Z,1.55
2022-11-17T12:26:32.792Z,0.93
2022-11-17T12:29:45.020Z,1.05
2022-11-17T12:32:51.188Z,1.00
2022-11-17T12:35:28.994Z,1.73
2022-11-17T12:41:19.712Z,1.13
2022-11-17T12:46:49.901Z,1.48
2022-11-17T12:49:30.467Z,1.10
2022-11-17T12:52:02.774Z,1.08
2022-11-17T12:54:38.762Z,1.48
2022-11-17T12:57:09.158Z,1.25
2022-11-17T13:00:02.990Z,1.15
2022-11-17T13:02:46.196Z,1.15
2022-11-17T13:05:18.372Z,1.67
2022-11-17T13:07:45.299Z,1.05
2022-11-17T13:10:25.068Z,1.23
2022-11-17T13:13:09.298Z,1.35
2022-11-17T13:15:36.903Z,1.30
2022-11-17T13:18:11.722Z,1.58
2022-11-17T13:40:43.426Z,2.72
2022-11-17T13:43:12.994Z,1.70
2022-11-17T13:45:40.680Z,2.22
2022-11-17T13:48:27.498Z,2.58
2022-11-17T13:50:54.422Z,2.90
2022-11-17T13:56:30.689Z,1.98
2022-11-17T13:58:59.540Z,1.70
2022-11-17T14:01:40.843Z,2.00
2022-11-17T14:04:19.597Z,1.95
2022-11-17T14:09:44.874Z,2.60
2022-11-17T14:12:26.846Z,2.58
2022-11-17T14:17:53.125Z,2.33
2022-11-17T14:20:31.224Z,3.10
2022-11-17T14:23:02.289Z,2.03
2022-11-17T14:25:29.231Z,2.58
2022-11-17T14:27:56.431Z,2.83
2022-11-17T14:30:23.421Z,2.42
2022-11-17T14:32:51.531Z,3.05
2022-11-17T14:37:50.248Z,3.70
2022-11-17T14:49:31.752Z,2.33
2022-11-17T14:52:00.413Z,3.97
2022-11-17T14:54:27.234Z,2.55
2022-11-17T14:56:54.272Z,3.38
2022-11-17T14:59:21.061Z,2.50
2022-11-17T15:01:47.988Z,2.72
2022-11-17T15:07:06.355Z,2.47
2022-11-17T15:09:33.430Z,2.22
2022-11-17T15:12:00.222Z,2.03
2022-11-17T15:14:27.192Z,3.20
2022-11-17T15:16:53.933Z,2.45
2022-11-17T15:19:20.761Z,1.85
2022-11-17T15:21:47.609Z,2.33
2022-11-17T15:24:15.934Z,2.00
2022-11-17T15:26:42.844Z,2.38
2022-11-17T15:29:12.774Z,1.90
2022-11-17T15:31:39.842Z,2.90
2022-11-17T15:34:06.825Z,1.73
2022-11-17T15:36:33.622Z,1.98
2022-11-17T15:39:00.433Z,1.50
2022-11-17T15:41:32.829Z,1.73
2022-11-17T15:44:00.103Z,1.92
2022-11-17T15:46:26.950Z,1.55
2022-11-17T15:48:55.594Z,1.98
2022-11-17T15:51:24.610Z,1.88
2022-11-17T15:53:52.791Z,1.83
2022-11-17T15:56:19.779Z,2.30
2022-11-17T15:58:49.563Z,1.98
2022-11-17T16:01:25.604Z,1.77
2022-11-17T16:03:56.390Z,2.55
2022-11-17T16:06:23.182Z,2.50
2022-11-17T16:08:50.157Z,2.08
2022-11-17T16:11:16.964Z,2.95
2022-11-17T16:13:43.826Z,2.25
2022-11-17T16:16:13.612Z,2.22
2022-11-17T16:18:41.050Z,1.42
2022-11-17T16:21:10.346Z,1.90
2022-11-17T16:23:38.851Z,2.50
2022-11-17T16:26:05.932Z,1.88
2022-11-17T16:28:32.964Z,2.20
2022-11-17T16:30:59.774Z,2.55
2022-11-17T16:33:27.917Z,2.33
2022-11-17T16:35:54.786Z,2.70
2022-11-17T16:38:21.600Z,2.88
2022-11-17T16:40:48.808Z,2.70
2022-11-17T16:43:15.610Z,2.30
2022-11-17T16:45:44.668Z,2.10
2022-11-17T16:48:12.461Z,2.90
2022-11-17T16:50:41.550Z,2.60
2022-11-17T16:53:08.671Z,2.50
2022-11-17T16:55:36.002Z,3.10
2022-11-17T16:58:03.508Z,3.53
2022-11-17T17:00:30.728Z,2.45
2022-11-17T17:02:57.915Z,3.75
2022-11-17T17:05:24.993Z,3.63
2022-11-17T17:07:53.312Z,2.08
2022-11-17T17:10:20.155Z,3.08
2022-11-17T17:12:46.997Z,3.45
2022-11-17T17:15:13.775Z,2.38
2022-11-17T17:17:40.542Z,3.97
2022-11-17T17:20:09.948Z,24.17
2022-11-17T17:22:36.752Z,95.30
2022-11-17T17:25:06.104Z,87.93
2022-11-17T17:27:32.964Z,27.15
2022-11-17T17:29:59.733Z,20.65
2022-11-17T17:32:26.602Z,19.33
2022-11-17T17:34:53.518Z,20.67
2022-11-17T17:37:20.310Z,24.17
2022-11-17T17:39:47.136Z,16.90
2022-11-17T17:42:15.359Z,45.92
2022-11-17T17:44:42.231Z,12.18
2022-11-17T17:47:09.111Z,9.45
2022-11-17T17:49:35.904Z,41.78
2022-11-17T17:52:02.780Z,36.03
2022-11-17T17:54:29.628Z,21.10
2022-11-17T17:56:57.782Z,9.50
2022-11-17T17:59:25.987Z,7.22
2022-11-17T18:01:53.357Z,8.00
2022-11-17T18:04:20.329Z,4.72
2022-11-17T18:06:48.436Z,6.90
2022-11-17T18:09:19.704Z,4.45
2022-11-17T18:11:50.527Z,4.60
2022-11-17T18:14:24.692Z,6.85
2022-11-17T18:25:22.434Z,3.00
2022-11-17T18:27:49.273Z,2.17
2022-11-17T18:30:16.931Z,2.72
2022-11-17T18:35:16.946Z,1.80
2022-11-17T18:37:43.813Z,1.35
2022-11-17T18:42:58.591Z,1.60
2022-11-17T18:45:25.416Z,1.90
2022-11-17T18:47:52.520Z,1.63
2022-11-17T18:53:05.957Z,1.77
2022-11-17T18:55:32.762Z,1.80
2022-11-17T19:00:45.186Z,2.35
2022-11-17T19:06:11.419Z,2.55
2022-11-17T19:08:39.760Z,2.00
2022-11-17T19:19:10.888Z,2.30
2022-11-17T19:21:37.770Z,2.13
2022-11-17T19:24:08.508Z,2.30
2022-11-17T19:26:36.334Z,1.85
2022-11-17T19:29:08.771Z,2.13
2022-11-17T19:49:09.086Z,2.30
2022-11-17T19:55:01.827Z,1.90
2022-11-17T20:00:37.219Z,2.15
2022-11-17T20:29:59.769Z,1.65
2022-11-17T20:44:24.224Z,1.98
2022-11-17T20:46:55.901Z,2.50
2022-11-17T21:04:56.718Z,2.13
2022-11-17T21:13:26.834Z,2.70
2022-11-17T21:18:50.079Z,2.47
2022-11-17T21:21:16.882Z,2.60
2022-11-17T21:23:46.923Z,3.30
2022-11-17T21:26:17.377Z,2.80
2022-11-17T21:28:46.561Z,2.65
2022-11-17T21:31:15.305Z,2.22
2022-11-17T21:33:42.821Z,2.10
2022-11-17T21:36:15.680Z,2.03
2022-11-17T21:38:43.135Z,3.00
2022-11-17T21:41:13.061Z,3.03
2022-11-17T21:43:41.261Z,2.75
2022-11-17T21:46:09.718Z,3.05
2022-11-17T21:48:37.672Z,2.45
2022-11-17T21:51:05.024Z,2.45
2022-11-17T21:53:33.366Z,2.75
2022-11-17T21:56:01.444Z,2.83
2022-11-17T21:58:28.649Z,2.78
2022-11-17T22:00:55.603Z,3.45
2022-11-17T22:03:26.262Z,3.00
2022-11-17T22:05:56.778Z,2.63
2022-11-17T22:08:26.414Z,4.68
2022-11-17T22:10:54.691Z,2.83
2022-11-17T22:13:21.454Z,3.15
2022-11-17T22:16:19.098Z,4.03
2022-11-17T22:18:46.090Z,3.28
2022-11-17T22:21:13.674Z,2.58
2022-11-17T22:23:40.453Z,2.90
2022-11-17T22:26:10.920Z,3.45
2022-11-17T22:28:37.758Z,2.72
2022-11-17T22:31:05.460Z,2.90
2022-11-17T22:33:32.286Z,3.25
2022-11-17T22:36:00.298Z,3.00
2022-11-17T22:38:30.084Z,3.08
2022-11-17T22:40:59.802Z,2.75
2022-11-17T22:43:28.361Z,2.88
2022-11-17T22:45:55.136Z,2.60
2022-11-17T22:48:24.389Z,2.33
2022-11-17T22:50:51.224Z,2.83
2022-11-17T22:53:18.454Z,2.55
2022-11-17T22:55:46.265Z,2.63
2022-11-17T22:58:15.868Z,2.70
2022-11-17T23:00:44.156Z,2.30
2022-11-17T23:03:12.640Z,3.15
2022-11-17T23:05:39.779Z,3.25
2022-11-17T23:08:09.803Z,2.47
2022-11-17T23:10:44.940Z,2.50
2022-11-17T23:13:11.731Z,2.42
2022-11-17T23:15:38.848Z,2.30
2022-11-17T23:18:09.675Z,2.35
2022-11-17T23:20:36.975Z,2.83
2022-11-17T23:23:03.965Z,2.42
2022-11-17T23:25:30.727Z,3.03
2022-11-17T23:27:59.827Z,2.78
2022-11-17T23:30:26.635Z,2.35
2022-11-17T23:32:55.073Z,2.15
2022-11-17T23:35:23.399Z,2.40
2022-11-17T23:49:01.581Z,1.95
2022-11-17T23:51:30.171Z,2.35
2022-11-17T23:56:35.641Z,2.20
2022-11-17T23:59:03.132Z,2.33
